US-0123 weather

Public forecast

Using degrees Fahrenheit for public forecast. Weather courtesy of forecast.io.

Closest aviation weather report (METAR) to Fighting Creek Farm Airport

Closest report is Chesterfield County Airport, 19.7 nm (36.5 km) ESE. Retrieved 2020/08/15 04:28 UTC (0 seconds ago):

KFCI 150428Z AUTO 04003KT 10SM -RA SCT005 BKN026 OVC049 23/23 A2997 RMK AO2 P0000

Closest aviation forecast (TAF) to Fighting Creek Farm Airport

Closest forecast is Richmond International Airport, 28.3 nm (52.4 km) E. Retrieved 2020-08-15 00:03 UTC (4 hours ago):

TAF KRIC 150001Z 1500/1524 07003KT P6SM VCSH FEW035 FEW060 BKN100 FM150600 VRB03KT P6SM BKN060 FM151000 VRB03KT P6SM BKN015 FM151500 07006KT 5SM -RA BKN010